Time;durP1;ratioP1;P1;durP2;ratioP2;P2;SDS_P1;SDS_P2;PMS_P1;PMS_P2;Temp;Humidity;BMP_temperature;BMP_pressure;BME280_temperature;BME280_humidity;BME280_pressure;Samples;Min_cycle;Max_cycle;Signal;HPM_P1;HPM_P2
2023/11/10 00:00:10;;;;;;;0.28;0.28;;;;;;;3.74;91.59;97493.09;5066277;28;20060;-63
2023/11/10 00:02:42;;;;;;;0.30;0.30;;;;;;;3.42;91.70;97463.28;5066393;28;20053;-64
2023/11/10 00:05:09;;;;;;;0.30;0.30;;;;;;;3.67;91.64;97514.63;5064932;28;20229;-63
2023/11/10 00:07:38;;;;;;;0.30;0.30;;;;;;;3.82;92.24;97522.44;5064641;28;20150;-64
2023/11/10 00:10:07;;;;;;;0.30;0.30;;;;;;;3.49;93.17;97484.72;5066292;28;20059;-64
2023/11/10 00:12:34;;;;;;;0.22;0.22;;;;;;;3.78;94.62;97543.38;5064438;28;20044;-63
2023/11/10 00:15:01;;;;;;;0.30;0.30;;;;;;;3.80;94.79;97521.94;5066044;28;20616;-64
2023/11/10 00:17:27;;;;;;;0.30;0.30;;;;;;;3.94;93.52;97536.34;5065662;28;20044;-64
2023/11/10 00:19:54;;;;;;;0.30;0.30;;;;;;;3.92;92.41;97530.38;5065521;28;20386;-64
2023/11/10 00:22:21;;;;;;;0.20;0.20;;;;;;;3.30;93.14;97443.88;5065905;28;20053;-63
2023/11/10 00:24:48;;;;;;;0.30;0.30;;;;;;;3.81;92.72;97548.22;5065299;28;20431;-63
2023/11/10 00:27:15;;;;;;;0.25;0.25;;;;;;;3.29;92.63;97474.31;5064205;28;20455;-64
2023/11/10 00:29:45;;;;;;;0.28;0.28;;;;;;;3.66;92.50;97523.16;5065104;28;20106;-64
2023/11/10 00:32:12;;;;;;;0.20;0.20;;;;;;;3.33;93.01;97487.06;5065705;28;20049;-63
2023/11/10 00:34:40;;;;;;;0.20;0.20;;;;;;;3.41;94.09;97527.38;5065151;28;20044;-63
2023/11/10 00:37:08;;;;;;;0.20;0.20;;;;;;;3.11;95.49;97495.28;5064219;28;20074;-63
2023/11/10 00:39:35;;;;;;;0.20;0.20;;;;;;;3.40;96.28;97520.25;5064579;28;20048;-63
2023/11/10 00:42:02;;;;;;;0.25;0.25;;;;;;;3.37;95.35;97492.72;5049729;28;20053;-63
2023/11/10 00:44:29;;;;;;;0.20;0.20;;;;;;;3.58;95.13;97516.53;5045641;28;20056;-63
2023/11/10 00:46:56;;;;;;;0.28;0.28;;;;;;;3.62;94.55;97503.78;5063635;28;20055;-63
2023/11/10 00:49:22;;;;;;;0.28;0.28;;;;;;;3.24;93.95;97447.84;5056744;28;20124;-64
2023/11/10 00:51:49;;;;;;;0.25;0.25;;;;;;;2.86;94.07;97405.63;5064742;28;20511;-63
2023/11/10 00:54:16;;;;;;;0.20;0.20;;;;;;;3.13;94.43;97471.13;5064925;28;20439;-63
2023/11/10 00:56:44;;;;;;;0.20;0.20;;;;;;;3.46;93.33;97499.88;5064737;28;20052;-63
2023/11/10 00:59:11;;;;;;;0.20;0.20;;;;;;;3.46;94.01;97512.75;5064436;28;20140;-64
2023/11/10 01:01:38;;;;;;;0.20;0.20;;;;;;;2.91;93.24;97430.09;5064840;28;20598;-63
2023/11/10 01:04:06;;;;;;;0.30;0.30;;;;;;;3.27;93.60;97510.22;5063453;28;20200;-63
2023/11/10 01:06:33;;;;;;;0.20;0.20;;;;;;;3.17;93.78;97506.91;5063510;28;20063;-64
2023/11/10 01:09:00;;;;;;;0.20;0.20;;;;;;;2.66;94.23;97433.47;5064655;28;20086;-63
2023/11/10 01:11:27;;;;;;;0.20;0.20;;;;;;;2.94;94.16;97501.44;5064925;28;20059;-65
2023/11/10 01:13:54;;;;;;;0.20;0.20;;;;;;;3.12;93.93;97518.78;5063501;28;20497;-63
2023/11/10 01:16:21;;;;;;;0.20;0.20;;;;;;;3.14;93.45;97516.56;5064787;28;20055;-63
2023/11/10 01:18:48;;;;;;;0.20;0.20;;;;;;;3.06;93.70;97517.31;5063248;28;20059;-63
2023/11/10 01:21:15;;;;;;;0.20;0.20;;;;;;;3.10;93.79;97515.53;5064797;28;20060;-64
2023/11/10 01:23:42;;;;;;;0.22;0.22;;;;;;;3.04;93.89;97512.13;5063152;28;20048;-63
2023/11/10 01:26:09;;;;;;;0.20;0.20;;;;;;;2.47;94.02;97419.16;5064495;28;20044;-63
2023/11/10 01:28:37;;;;;;;0.30;0.30;;;;;;;2.78;92.95;97456.41;5064534;28;20045;-63
2023/11/10 01:31:04;;;;;;;0.20;0.20;;;;;;;2.47;93.72;97435.56;5064286;28;20048;-63
2023/11/10 01:33:31;;;;;;;0.30;0.30;;;;;;;2.57;94.18;97440.78;5064168;28;20041;-63
2023/11/10 01:35:58;;;;;;;0.30;0.30;;;;;;;2.98;95.15;97486.03;5062500;28;20455;-63
2023/11/10 01:38:24;;;;;;;0.20;0.20;;;;;;;2.94;95.67;97489.69;5062943;28;20083;-63
2023/11/10 01:40:51;;;;;;;0.20;0.20;;;;;;;2.96;96.34;97476.50;5069172;28;20044;-64
2023/11/10 01:43:18;;;;;;;0.20;0.20;;;;;;;2.92;96.76;97448.16;5084058;28;20056;-64
2023/11/10 01:45:45;;;;;;;0.20;0.20;;;;;;;3.21;97.59;97478.59;5083859;28;20438;-63
2023/11/10 01:48:13;;;;;;;0.20;0.20;;;;;;;3.21;96.51;97478.59;5084463;28;20048;-63
2023/11/10 01:50:41;;;;;;;0.30;0.30;;;;;;;3.22;95.70;97469.28;5082667;28;20134;-65
2023/11/10 01:53:09;;;;;;;0.30;0.30;;;;;;;3.26;96.56;97486.69;5084009;28;20060;-64
2023/11/10 01:55:37;;;;;;;0.30;0.30;;;;;;;3.31;96.75;97486.56;5084251;28;20058;-64
2023/11/10 01:58:05;;;;;;;0.20;0.20;;;;;;;3.18;96.13;97479.22;5084252;28;20075;-63
2023/11/10 02:00:32;;;;;;;0.20;0.20;;;;;;;3.12;96.27;97480.47;5083688;28;20074;-63
2023/11/10 02:03:06;;;;;;;0.20;0.20;;;;;;;3.05;96.81;97482.84;5084293;28;20459;-63
2023/11/10 02:05:34;;;;;;;0.28;0.28;;;;;;;2.16;96.48;97391.75;5083916;28;20052;-64
2023/11/10 02:08:04;;;;;;;0.20;0.20;;;;;;;2.94;96.83;97467.81;5082539;28;20058;-63
2023/11/10 02:10:32;;;;;;;0.20;0.20;;;;;;;3.06;96.88;97476.25;5082400;28;20130;-64
2023/11/10 02:12:59;;;;;;;0.20;0.20;;;;;;;3.08;95.92;97484.97;5084261;28;20498;-63
2023/11/10 02:15:29;;;;;;;0.20;0.20;;;;;;;3.11;95.80;97481.59;5084124;28;20051;-64
2023/11/10 02:17:56;;;;;;;0.30;0.30;;;;;;;2.89;97.80;97471.44;5084333;28;20048;-63
2023/11/10 02:20:23;;;;;;;0.20;0.20;;;;;;;2.70;98.17;97439.94;5084151;28;20517;-63
2023/11/10 02:22:50;;;;;;;0.20;0.20;;;;;;;3.06;96.21;97476.25;5084429;28;20048;-63
2023/11/10 02:25:19;;;;;;;0.20;0.20;;;;;;;2.93;96.13;97463.44;5083805;28;20353;-64
2023/11/10 02:27:47;;;;;;;0.20;0.20;;;;;;;3.10;96.57;97477.22;5082076;28;20242;-63
2023/11/10 02:30:14;;;;;;;0.22;0.22;;;;;;;3.10;96.57;97477.22;5083693;28;20131;-63
2023/11/10 02:32:42;;;;;;;0.25;0.25;;;;;;;2.92;96.02;97461.84;5083766;28;20048;-63
2023/11/10 02:35:10;;;;;;;0.20;0.20;;;;;;;3.08;96.42;97479.50;5081924;28;20117;-63
2023/11/10 02:37:37;;;;;;;0.20;0.20;;;;;;;3.07;96.83;97472.38;5083727;28;20135;-64
2023/11/10 02:40:08;;;;;;;0.30;0.30;;;;;;;3.10;96.26;97477.22;5083624;28;20056;-63
2023/11/10 02:42:36;;;;;;;0.20;0.20;;;;;;;3.00;95.24;97458.34;5078683;28;20519;-64
2023/11/10 02:45:03;;;;;;;0.20;0.20;;;;;;;2.54;95.29;97397.66;5061791;28;20502;-63
2023/11/10 02:47:31;;;;;;;0.20;0.20;;;;;;;2.52;95.72;97416.31;5062357;28;20534;-63
2023/11/10 02:49:58;;;;;;;0.20;0.20;;;;;;;3.04;96.37;97473.00;5063305;28;20217;-64
2023/11/10 02:52:25;;;;;;;0.20;0.20;;;;;;;3.00;96.30;97477.50;5063363;28;20564;-63
2023/11/10 02:54:52;;;;;;;0.20;0.20;;;;;;;3.04;96.39;97473.81;5063386;28;20451;-64
2023/11/10 02:57:20;;;;;;;0.20;0.20;;;;;;;2.98;97.24;97480.56;5063470;28;20052;-63
2023/11/10 02:59:49;;;;;;;0.20;0.20;;;;;;;2.95;97.38;97480.34;5061934;28;20067;-63
2023/11/10 03:02:15;;;;;;;0.20;0.20;;;;;;;3.04;97.63;97483.97;5062203;28;20052;-64
2023/11/10 03:04:42;;;;;;;0.20;0.20;;;;;;;2.30;97.84;97353.41;5065697;28;20311;-63
2023/11/10 03:07:10;;;;;;;0.30;0.30;;;;;;;3.08;97.13;97491.22;5067140;28;20135;-64
2023/11/10 03:09:40;;;;;;;0.20;0.20;;;;;;;3.12;96.50;97475.00;5067504;28;20122;-63
2023/11/10 03:12:08;;;;;;;0.20;0.20;;;;;;;3.06;97.37;97470.78;5067310;28;20044;-63
2023/11/10 03:14:36;;;;;;;0.20;0.20;;;;;;;3.12;97.95;97469.53;5066815;28;20498;-64
2023/11/10 03:17:04;;;;;;;0.20;0.20;;;;;;;3.21;97.57;97466.84;5066962;28;20173;-63
2023/11/10 03:19:31;;;;;;;0.30;0.30;;;;;;;3.23;96.71;97470.88;5065505;28;20040;-63
2023/11/10 03:21:57;;;;;;;0.20;0.20;;;;;;;2.75;96.50;97388.66;5066775;28;20060;-63
2023/11/10 03:24:24;;;;;;;0.22;0.22;;;;;;;3.28;95.74;97468.03;5066546;28;20057;-63
2023/11/10 03:26:51;;;;;;;0.20;0.20;;;;;;;3.21;95.36;97466.84;5066639;28;20056;-64
2023/11/10 03:29:18;;;;;;;0.25;0.25;;;;;;;2.65;94.95;97377.16;5066814;28;20530;-64
2023/11/10 03:31:44;;;;;;;0.20;0.20;;;;;;;3.21;94.70;97467.66;5066540;28;20052;-63
2023/11/10 03:34:12;;;;;;;0.20;0.20;;;;;;;3.14;95.12;97461.81;5066432;28;20629;-63
2023/11/10 03:36:38;;;;;;;0.30;0.30;;;;;;;3.18;95.07;97465.53;5065586;28;20060;-63
2023/11/10 03:39:05;;;;;;;0.20;0.20;;;;;;;3.24;95.43;97456.06;5066348;28;20145;-64
2023/11/10 03:41:32;;;;;;;0.20;0.20;;;;;;;3.28;94.54;97457.06;5076172;28;20052;-63
2023/11/10 03:43:58;;;;;;;0.20;0.20;;;;;;;3.28;94.36;97462.53;5086104;28;20564;-64
2023/11/10 03:46:25;;;;;;;0.20;0.20;;;;;;;3.12;95.05;97433.94;5086593;28;20433;-63
2023/11/10 03:48:52;;;;;;;0.20;0.20;;;;;;;3.23;93.33;97453.66;5086822;28;20052;-63
2023/11/10 03:51:19;;;;;;;0.20;0.20;;;;;;;2.84;94.37;97408.69;5086741;28;20167;-63
2023/11/10 03:53:46;;;;;;;0.30;0.30;;;;;;;3.14;94.98;97450.88;5086253;28;20086;-63
2023/11/10 03:56:12;;;;;;;0.20;0.20;;;;;;;3.06;95.62;97432.47;5086269;28;20058;-63
2023/11/10 03:58:40;;;;;;;0.20;0.20;;;;;;;3.17;96.59;97450.25;5086188;28;20054;-64
2023/11/10 04:01:10;;;;;;;0.20;0.20;;;;;;;3.16;97.29;97443.16;5085845;28;20435;-64
2023/11/10 04:03:39;;;;;;;0.20;0.20;;;;;;;3.24;97.63;97450.59;5086081;28;20105;-63
2023/11/10 04:06:07;;;;;;;0.20;0.20;;;;;;;3.23;97.40;97438.03;5086322;28;20117;-63
2023/11/10 04:08:33;;;;;;;0.20;0.20;;;;;;;3.38;96.85;97437.66;4990396;27;20066;-63
2023/11/10 04:11:00;;;;;;;0.20;0.20;;;;;;;3.31;97.43;97426.34;5085665;28;20529;-63
2023/11/10 04:13:27;;;;;;;0.25;0.25;;;;;;;3.43;96.78;97423.81;5085922;28;20372;-64
2023/11/10 04:15:56;;;;;;;0.20;0.20;;;;;;;3.47;96.30;97438.50;5084150;28;20051;-64
2023/11/10 04:18:27;;;;;;;0.20;0.20;;;;;;;3.44;94.96;97422.69;5085907;28;20055;-63
2023/11/10 04:20:55;;;;;;;0.20;0.20;;;;;;;3.44;95.04;97433.66;5084418;28;20130;-64
2023/11/10 04:23:22;;;;;;;0.30;0.30;;;;;;;3.34;95.57;97420.22;5085627;28;20083;-63
2023/11/10 04:25:49;;;;;;;0.30;0.30;;;;;;;2.54;97.45;97305.53;5085795;28;20522;-63
2023/11/10 04:28:16;;;;;;;0.20;0.20;;;;;;;3.19;97.86;97426.13;5085638;28;20048;-63
2023/11/10 04:30:44;;;;;;;0.20;0.20;;;;;;;3.17;98.44;97427.53;5085724;28;20044;-63
2023/11/10 04:33:11;;;;;;;0.20;0.20;;;;;;;3.21;98.32;97418.38;5086458;28;20213;-63
2023/11/10 04:35:38;;;;;;;0.20;0.20;;;;;;;0.95;98.66;97068.91;5083433;28;20139;-63
2023/11/10 04:38:08;;;;;;;0.30;0.30;;;;;;;3.16;99.26;97407.59;5085355;28;20075;-63
2023/11/10 04:40:35;;;;;;;0.20;0.20;;;;;;;3.18;99.06;97423.69;5085014;28;20383;-63
2023/11/10 04:43:02;;;;;;;0.20;0.20;;;;;;;3.16;99.24;97402.13;5105607;28;20502;-63
2023/11/10 04:45:29;;;;;;;0.20;0.20;;;;;;;3.25;98.87;97402.97;5104007;28;20052;-63
2023/11/10 04:47:56;;;;;;;0.20;0.20;;;;;;;3.23;97.78;97407.13;5105408;28;20052;-63
2023/11/10 04:50:23;;;;;;;0.20;0.20;;;;;;;3.24;98.66;97423.22;5105509;28;20083;-63
2023/11/10 04:52:51;;;;;;;0.20;0.20;;;;;;;2.87;98.46;97352.53;5105605;28;20052;-63
2023/11/10 04:55:18;;;;;;;0.20;0.20;;;;;;;3.34;98.37;97412.00;5105629;28;20058;-63
2023/11/10 04:57:45;;;;;;;0.20;0.20;;;;;;;3.33;99.38;97410.41;5105253;28;20621;-63
2023/11/10 05:00:13;;;;;;;0.20;0.20;;;;;;;3.38;99.25;97418.50;5105129;28;20101;-63
2023/11/10 05:02:43;;;;;;;0.20;0.20;;;;;;;3.45;98.94;97424.31;5105339;28;20074;-63
2023/11/10 05:05:13;;;;;;;0.22;0.22;;;;;;;3.46;98.80;97425.13;5103965;28;20052;-64
2023/11/10 05:07:41;;;;;;;0.20;0.20;;;;;;;3.53;98.72;97418.06;5105351;28;20056;-62
2023/11/10 05:10:08;;;;;;;0.20;0.20;;;;;;;3.58;97.76;97417.09;5105621;28;20050;-62
2023/11/10 05:12:36;;;;;;;0.22;0.22;;;;;;;3.51;96.24;97400.34;5105174;28;20053;-63
2023/11/10 05:15:05;;;;;;;0.20;0.20;;;;;;;3.64;96.40;97415.84;5095671;28;20319;-63
2023/11/10 05:17:35;;;;;;;0.30;0.30;;;;;;;3.66;96.53;97408.94;5084421;28;20108;-63
2023/11/10 05:20:03;;;;;;;0.30;0.30;;;;;;;3.77;96.86;97410.25;5083056;28;20063;-63
2023/11/10 05:22:32;;;;;;;0.20;0.20;;;;;;;3.77;96.24;97410.25;5084362;28;20074;-62
2023/11/10 05:25:02;;;;;;;0.30;0.30;;;;;;;3.82;94.40;97440.25;5083987;28;20051;-63
2023/11/10 05:27:29;;;;;;;0.30;0.30;;;;;;;3.96;93.94;97419.03;5071870;28;20052;-63
2023/11/10 05:29:56;;;;;;;0.22;0.22;;;;;;;4.02;94.90;97423.22;5064281;28;20102;-63
2023/11/10 05:32:23;;;;;;;0.30;0.30;;;;;;;4.11;93.77;97424.03;5064425;28;20521;-63
2023/11/10 05:34:50;;;;;;;0.28;0.28;;;;;;;2.73;93.98;97198.66;5062076;28;20056;-64
2023/11/10 05:37:21;;;;;;;0.20;0.20;;;;;;;4.11;92.60;97398.59;5063164;28;20052;-63
2023/11/10 05:39:50;;;;;;;0.20;0.20;;;;;;;3.93;92.57;97375.81;5061579;28;20049;-63
2023/11/10 05:42:18;;;;;;;0.20;0.20;;;;;;;4.25;91.71;97426.66;5062800;28;20084;-63
2023/11/10 05:44:45;;;;;;;0.20;0.20;;;;;;;3.73;92.31;97321.59;5063270;28;20493;-62
2023/11/10 05:47:11;;;;;;;0.25;0.25;;;;;;;4.40;94.54;97412.47;5062844;28;20053;-64
2023/11/10 05:49:39;;;;;;;0.30;0.30;;;;;;;4.61;94.76;97436.22;5062764;28;20056;-63
2023/11/10 05:52:06;;;;;;;0.30;0.30;;;;;;;4.47;93.76;97391.66;5063601;28;20048;-63
2023/11/10 05:54:32;;;;;;;0.30;0.30;;;;;;;4.87;92.78;97432.66;5062436;28;20045;-63
2023/11/10 05:56:59;;;;;;;0.30;0.30;;;;;;;4.92;93.10;97429.72;5063488;28;20137;-64
2023/11/10 05:59:27;;;;;;;0.30;0.30;;;;;;;4.79;93.88;97422.50;5064151;28;20044;-63
2023/11/10 06:01:57;;;;;;;0.30;0.30;;;;;;;5.31;93.75;97426.78;5063950;28;20067;-64
2023/11/10 06:04:24;;;;;;;0.30;0.30;;;;;;;5.04;92.89;97355.78;5063624;28;21507;-64
2023/11/10 06:07:01;;;;;;;0.30;0.30;;;;;;;4.76;92.80;97294.19;5063595;28;20063;-64
2023/11/10 06:09:28;;;;;;;0.30;0.30;;;;;;;5.39;92.37;97368.25;5063660;28;20102;-64
2023/11/10 06:11:55;;;;;;;0.30;0.30;;;;;;;5.86;90.39;97411.06;5078621;28;20106;-63
2023/11/10 06:14:22;;;;;;;0.30;0.30;;;;;;;5.94;89.32;97423.97;5063537;28;20059;-64
2023/11/10 06:16:49;;;;;;;0.30;0.30;;;;;;;5.97;89.43;97428.81;5063474;28;20052;-64
2023/11/10 06:19:16;;;;;;;0.30;0.30;;;;;;;5.62;88.74;97362.19;5063574;28;20059;-60
2023/11/10 06:21:42;;;;;;;0.30;0.30;;;;;;;6.23;88.25;97432.22;5063095;28;20434;-60
2023/11/10 06:24:09;;;;;;;0.30;0.30;;;;;;;6.31;87.58;97442.34;5062897;28;20557;-60
2023/11/10 06:26:36;;;;;;;0.30;0.30;;;;;;;6.36;88.69;97424.84;5063349;28;20571;-63
2023/11/10 06:29:03;;;;;;;0.30;0.30;;;;;;;6.57;88.89;97404.47;5063544;28;20472;-60
2023/11/10 06:31:30;;;;;;;0.30;0.30;;;;;;;6.64;88.71;97415.75;5062255;28;20131;-63
2023/11/10 06:33:57;;;;;;;0.30;0.30;;;;;;;6.83;87.85;97424.31;5062318;28;20110;-63
2023/11/10 06:36:23;;;;;;;0.30;0.30;;;;;;;6.83;85.90;97413.31;5062522;28;20052;-64
2023/11/10 06:38:50;;;;;;;0.30;0.30;;;;;;;6.76;84.68;97424.06;5064200;28;20056;-63
2023/11/10 06:41:18;;;;;;;0.40;0.40;;;;;;;6.79;84.19;97417.91;5067124;28;20052;-64
2023/11/10 06:43:47;;;;;;;0.30;0.30;;;;;;;6.85;83.65;97416.53;5067925;28;20060;-64
2023/11/10 06:46:22;;;;;;;0.30;0.30;;;;;;;6.94;84.62;97416.47;5067583;28;20095;-62
2023/11/10 06:48:54;;;;;;;0.30;0.30;;;;;;;6.98;85.96;97409.94;5062619;28;20079;-62
2023/11/10 06:51:21;;;;;;;0.30;0.30;;;;;;;7.18;86.82;97389.81;5064274;28;20126;-64
2023/11/10 06:53:48;;;;;;;0.40;0.40;;;;;;;7.51;87.32;97385.06;5066319;28;20539;-61
2023/11/10 06:56:15;;;;;;;0.30;0.30;;;;;;;7.83;87.25;97385.31;5066427;28;20091;-63
2023/11/10 06:58:42;;;;;;;0.40;0.40;;;;;;;8.11;86.86;97380.75;5065222;28;20057;-62
2023/11/10 07:01:09;;;;;;;0.40;0.40;;;;;;;8.47;87.17;97369.69;5065344;28;20056;-63
2023/11/10 07:03:36;;;;;;;0.40;0.40;;;;;;;8.73;85.06;97381.09;5051278;28;20046;-61
2023/11/10 07:06:04;;;;;;;0.30;0.30;;;;;;;9.06;84.39;97373.38;5045550;28;20053;-61
2023/11/10 07:08:32;;;;;;;0.40;0.40;;;;;;;9.45;84.06;97364.19;5056075;28;20084;-60
2023/11/10 07:11:01;;;;;;;0.40;0.40;;;;;;;9.48;81.61;97329.50;5064632;28;20048;-61
2023/11/10 07:13:29;;;;;;;0.47;0.47;;;;;;;9.71;80.29;97345.09;5064608;28;20560;-62
2023/11/10 07:15:57;;;;;;;0.50;0.50;;;;;;;10.15;80.49;97360.44;5064767;28;20048;-62
2023/11/10 07:18:26;;;;;;;0.50;0.50;;;;;;;10.26;80.22;97355.97;5063453;28;20056;-61
2023/11/10 07:20:54;;;;;;;0.50;0.50;;;;;;;10.16;80.26;97295.59;5064200;28;20056;-63
2023/11/10 07:23:21;;;;;;;0.50;0.50;;;;;;;10.21;80.52;97255.78;5063121;28;20086;-62
2023/11/10 07:25:50;;;;;;;0.50;0.50;;;;;;;10.37;80.08;97249.00;5064569;28;20049;-65
2023/11/10 07:28:17;;;;;;;0.50;0.50;;;;;;;11.05;79.32;97331.53;5062150;28;20120;-65
2023/11/10 07:30:44;;;;;;;0.50;0.50;;;;;;;11.24;79.78;97339.84;5061250;28;20040;-66
2023/11/10 07:33:11;;;;;;;0.50;0.50;;;;;;;10.38;77.46;97170.31;5063761;28;20052;-65
2023/11/10 07:35:38;;;;;;;0.50;0.50;;;;;;;11.43;77.39;97332.25;5063023;28;20052;-64
2023/11/10 07:38:05;;;;;;;0.60;0.60;;;;;;;9.12;77.91;96963.78;5063379;28;20182;-62
2023/11/10 07:40:32;;;;;;;0.50;0.50;;;;;;;11.49;78.98;97330.78;5063932;28;20096;-65
2023/11/10 07:42:59;;;;;;;0.40;0.40;;;;;;;11.61;78.06;97332.56;5065293;28;20052;-64
2023/11/10 07:45:28;;;;;;;0.50;0.50;;;;;;;10.83;78.14;97232.53;5064013;28;20164;-63
2023/11/10 07:47:55;;;;;;;0.50;0.50;;;;;;;11.68;78.51;97316.09;5063512;28;20265;-61
2023/11/10 07:50:23;;;;;;;0.50;0.50;;;;;;;11.76;78.28;97287.28;5063588;28;20138;-64
2023/11/10 07:52:51;;;;;;;0.50;0.50;;;;;;;11.87;78.50;97299.38;5065295;28;20048;-66
2023/11/10 07:55:18;;;;;;;0.50;0.50;;;;;;;11.26;82.20;97293.91;5064787;28;20055;-61
2023/11/10 07:57:45;;;;;;;0.50;0.50;;;;;;;11.67;81.11;97297.81;5063700;28;20040;-61
2023/11/10 08:00:13;;;;;;;0.50;0.50;;;;;;;11.59;80.07;97235.03;5064196;28;20044;-63
2023/11/10 08:02:41;;;;;;;0.52;0.52;;;;;;;12.26;79.23;97275.75;5063961;28;20716;-63
2023/11/10 08:05:09;;;;;;;0.50;0.50;;;;;;;12.34;78.35;97271.91;5064997;28;20079;-62
2023/11/10 08:07:36;;;;;;;0.50;0.50;;;;;;;12.63;78.01;97276.63;5063847;28;20161;-63
2023/11/10 08:10:04;;;;;;;0.50;0.50;;;;;;;12.05;77.05;97220.72;5063063;28;20047;-61
2023/11/10 08:12:32;;;;;;;0.55;0.55;;;;;;;12.26;76.93;97244.38;5064241;28;20048;-66
2023/11/10 08:15:00;;;;;;;0.50;0.50;;;;;;;12.14;76.26;97240.66;5063729;28;20106;-64
2023/11/10 08:17:29;;;;;;;0.60;0.60;;;;;;;12.29;76.72;97277.78;5064754;28;20048;-61
2023/11/10 08:19:57;;;;;;;0.50;0.50;;;;;;;12.43;76.38;97241.03;5061673;28;20055;-65
2023/11/10 08:22:24;;;;;;;0.60;0.60;;;;;;;12.41;76.55;97266.44;5063260;28;20567;-62
2023/11/10 08:24:51;;;;;;;0.50;0.50;;;;;;;11.47;81.25;97243.56;5064508;28;20040;-60
2023/11/10 08:27:17;;;;;;;0.60;0.60;;;;;;;11.67;80.33;97209.03;5064931;28;20052;-60
2023/11/10 08:29:44;;;;;;;0.50;0.50;;;;;;;10.60;81.38;97061.53;5063297;28;20056;-62
2023/11/10 08:32:11;;;;;;;0.52;0.52;;;;;;;12.04;80.13;97229.41;5063749;28;20609;-62
2023/11/10 08:34:38;;;;;;;0.50;0.50;;;;;;;12.45;78.66;97233.94;5064558;28;20048;-61
2023/11/10 08:37:05;;;;;;;0.50;0.50;;;;;;;12.54;77.06;97241.97;5079143;28;20060;-62
2023/11/10 08:39:31;;;;;;;0.50;0.50;;;;;;;12.97;77.24;97250.44;5062598;28;20048;-64
2023/11/10 08:41:59;;;;;;;0.60;0.60;;;;;;;13.31;74.75;97254.78;5062899;28;20095;-61
2023/11/10 08:44:26;;;;;;;0.50;0.50;;;;;;;13.33;74.25;97258.00;5062496;28;20110;-60
2023/11/10 08:46:54;;;;;;;0.50;0.50;;;;;;;12.32;75.37;97185.34;5060954;28;20059;-62
2023/11/10 08:49:21;;;;;;;0.60;0.60;;;;;;;12.60;73.97;97160.69;5062723;28;20138;-62
2023/11/10 08:51:48;;;;;;;0.60;0.60;;;;;;;13.49;73.04;97243.84;5062548;28;20392;-60
2023/11/10 08:54:15;;;;;;;0.55;0.55;;;;;;;13.42;72.87;97183.34;5062967;28;20048;-64
2023/11/10 08:56:42;;;;;;;0.60;0.60;;;;;;;14.12;70.86;97247.09;5064464;28;20135;-67
2023/11/10 08:59:09;;;;;;;0.60;0.60;;;;;;;14.36;67.68;97271.56;5063857;28;20048;-63
2023/11/10 09:01:36;;;;;;;0.60;0.60;;;;;;;13.92;66.80;97200.41;5059675;28;20057;-59
2023/11/10 09:04:05;;;;;;;0.60;0.60;;;;;;;14.10;66.78;97213.25;5060130;28;20048;-62
2023/11/10 09:06:47;;;;;;;0.60;0.60;;;;;;;14.06;66.38;97206.06;5077748;28;20048;-62
2023/11/10 09:09:14;;;;;;;0.60;0.60;;;;;;;14.47;66.09;97250.13;5062953;28;20060;-62
2023/11/10 09:11:41;;;;;;;0.60;0.60;;;;;;;14.49;65.66;97246.94;5064522;28;20044;-65
2023/11/10 09:14:09;;;;;;;0.60;0.60;;;;;;;14.44;65.66;97228.63;5063285;28;20048;-63
2023/11/10 09:16:36;;;;;;;0.70;0.70;;;;;;;14.53;65.21;97244.97;5061356;28;20129;-61
2023/11/10 09:19:04;;;;;;;0.60;0.60;;;;;;;14.39;65.45;97228.97;5061006;28;20077;-62
2023/11/10 09:21:31;;;;;;;0.60;0.60;;;;;;;14.33;65.87;97204.66;5063378;28;20053;-65
2023/11/10 09:23:58;;;;;;;0.60;0.60;;;;;;;14.09;65.25;97171.84;5061834;28;20048;-62
2023/11/10 09:26:25;;;;;;;0.60;0.60;;;;;;;14.27;65.23;97217.38;5060354;28;20052;-64
2023/11/10 09:28:52;;;;;;;0.60;0.60;;;;;;;14.35;66.26;97232.94;5060857;28;20136;-62
2023/11/10 09:31:18;;;;;;;0.60;0.60;;;;;;;14.37;65.81;97233.38;5062235;28;20048;-61
2023/11/10 09:33:46;;;;;;;0.65;0.65;;;;;;;14.48;65.42;97223.06;5060345;28;20052;-64
2023/11/10 09:36:13;;;;;;;0.60;0.60;;;;;;;13.84;64.93;97087.38;5059359;28;20052;-64
2023/11/10 09:38:39;;;;;;;0.70;0.70;;;;;;;14.43;63.64;97168.47;5067160;28;20048;-65
2023/11/10 09:41:14;;;;;;;0.70;0.70;;;;;;;14.55;63.75;97184.06;5064003;28;20044;-65
2023/11/10 09:43:45;;;;;;;0.60;0.60;;;;;;;14.84;63.65;97216.44;5062022;28;20062;-64
2023/11/10 09:46:15;;;;;;;0.70;0.70;;;;;;;14.39;63.17;97130.63;5059419;28;20056;-70
2023/11/10 09:48:43;;;;;;;0.60;0.60;;;;;;;14.83;62.56;97147.88;5057525;28;20049;-65
2023/11/10 09:51:13;;;;;;;0.60;0.60;;;;;;;15.34;61.38;97192.19;5064043;28;20088;-61
2023/11/10 09:53:41;;;;;;;0.60;0.60;;;;;;;15.26;61.52;97185.81;5048823;28;20045;-64
2023/11/10 09:56:10;;;;;;;0.70;0.70;;;;;;;15.10;61.89;97143.53;5076055;28;20557;-63
2023/11/10 09:58:38;;;;;;;0.70;0.70;;;;;;;14.58;61.95;97138.66;5063091;28;20063;-63
2023/11/10 10:01:06;;;;;;;0.70;0.70;;;;;;;14.71;62.35;97159.41;5054151;28;20499;-68
2023/11/10 10:03:35;;;;;;;0.65;0.65;;;;;;;14.35;63.50;97180.00;5048950;28;20076;-64
2023/11/10 10:06:03;;;;;;;0.60;0.60;;;;;;;14.27;64.64;97178.38;5046806;28;20053;-65
2023/11/10 10:08:30;;;;;;;0.60;0.60;;;;;;;14.34;61.65;97139.38;5057631;28;20697;-66
2023/11/10 10:10:57;;;;;;;0.60;0.60;;;;;;;14.53;60.89;97113.94;5063470;28;20542;-66
2023/11/10 10:13:27;;;;;;;0.70;0.70;;;;;;;13.73;60.34;96914.75;5058908;28;20049;-62
2023/11/10 10:16:07;;;;;;;0.70;0.70;;;;;;;15.63;58.14;97161.13;5043361;28;20057;-60
2023/11/10 10:18:34;;;;;;;0.70;0.70;;;;;;;15.69;58.05;97150.34;5054916;28;20163;-61
2023/11/10 10:21:01;;;;;;;0.70;0.70;;;;;;;15.87;58.03;97132.34;5063865;28;20049;-62
2023/11/10 10:23:28;;;;;;;0.68;0.68;;;;;;;15.95;58.08;97128.34;5063313;28;20060;-64
2023/11/10 10:25:57;;;;;;;0.70;0.70;;;;;;;15.70;56.40;97071.75;5063388;28;20052;-64
2023/11/10 10:28:24;;;;;;;0.70;0.70;;;;;;;15.60;56.59;97039.03;5063079;28;20056;-65
2023/11/10 10:30:51;;;;;;;0.70;0.70;;;;;;;15.45;55.55;97004.00;5062906;28;20052;-66
2023/11/10 10:33:18;;;;;;;0.60;0.60;;;;;;;15.60;56.86;97089.31;5061735;28;20082;-65
2023/11/10 10:35:45;;;;;;;0.70;0.70;;;;;;;15.43;55.84;97016.78;5063282;28;20064;-65
2023/11/10 10:38:17;;;;;;;0.70;0.70;;;;;;;15.78;55.08;97025.84;5061872;28;20060;-61
2023/11/10 10:40:44;;;;;;;0.70;0.70;;;;;;;16.21;54.29;97010.47;5063189;28;20563;-61
2023/11/10 10:43:13;;;;;;;0.70;0.70;;;;;;;16.77;53.46;97064.50;5063127;28;20053;-63
2023/11/10 10:45:42;;;;;;;0.70;0.70;;;;;;;16.84;53.46;97050.44;5061609;28;20054;-63
2023/11/10 10:48:11;;;;;;;0.70;0.70;;;;;;;16.90;53.67;97046.00;5061743;28;20040;-63
2023/11/10 10:50:40;;;;;;;0.70;0.70;;;;;;;17.38;52.74;97007.56;5063376;28;20080;-61
2023/11/10 10:53:09;;;;;;;0.70;0.70;;;;;;;17.84;50.67;97030.31;5063221;28;20055;-62
2023/11/10 10:55:40;;;;;;;0.80;0.80;;;;;;;18.19;50.55;97023.47;5063265;28;20079;-63
2023/11/10 10:58:10;;;;;;;0.70;0.70;;;;;;;18.00;50.04;96972.44;5062642;28;20519;-64
2023/11/10 11:00:37;;;;;;;0.70;0.70;;;;;;;18.41;49.75;97010.78;5062707;28;20411;-61
2023/11/10 11:03:33;;;;;;;0.70;0.70;;;;;;;18.59;49.10;97003.69;5066690;28;20551;-63
2023/11/10 11:06:17;;;;;;;0.80;0.80;;;;;;;17.48;49.41;96945.09;5048742;28;20048;-61
2023/11/10 11:08:59;;;;;;;0.70;0.70;;;;;;;17.17;50.90;96975.00;5061463;28;20044;-63
2023/11/10 11:11:46;;;;;;;0.70;0.70;;;;;;;17.08;52.65;97007.47;5061607;28;20308;-64
2023/11/10 11:14:51;;;;;;;0.70;0.70;;;;;;;17.06;51.92;97009.88;5059892;28;20041;-63
2023/11/10 11:17:30;;;;;;;0.60;0.60;;;;;;;16.98;52.57;97005.53;5054661;28;20525;-61
2023/11/10 11:19:58;;;;;;;0.70;0.70;;;;;;;17.13;52.60;97004.22;5062201;28;20142;-63
2023/11/10 11:22:27;;;;;;;0.80;0.80;;;;;;;17.19;52.00;96994.16;5058169;28;20143;-63
2023/11/10 11:25:04;;;;;;;0.70;0.70;;;;;;;17.22;51.98;96988.53;5053404;28;20040;-68
2023/11/10 11:27:33;;;;;;;0.75;0.75;;;;;;;17.25;51.65;96986.91;5064387;28;20052;-63
2023/11/10 11:30:07;;;;;;;0.70;0.70;;;;;;;15.62;51.59;96707.16;5054729;28;20191;-69
2023/11/10 11:32:40;;;;;;;0.70;0.70;;;;;;;17.11;51.89;96959.06;5064648;28;20068;-63
2023/11/10 11:35:17;;;;;;;;;;;;;;;16.99;52.64;96956.78;5058799;28;20140;-63
2023/11/10 11:37:45;;;;;;;0.70;0.70;;;;;;;14.30;52.53;96575.72;5055237;28;20001;-67
2023/11/10 11:40:12;;;;;;;0.70;0.70;;;;;;;16.87;52.29;96954.47;5058589;28;20056;-63
2023/11/10 11:42:43;;;;;;;0.70;0.70;;;;;;;16.39;52.40;96874.16;5061393;28;20491;-69